sensor_id;sensor_type;location;lat;lon;timestamp;P1;durP1;ratioP1;P2;durP2;ratioP2
69305;SDS011;56427;51.580;4.656;2024-03-22T00:01:51;48.45;;;24.48;;
69305;SDS011;56427;51.580;4.656;2024-03-22T00:04:17;54.88;;;26.00;;
69305;SDS011;56427;51.580;4.656;2024-03-22T00:06:42;53.20;;;24.83;;
69305;SDS011;56427;51.580;4.656;2024-03-22T00:09:09;49.50;;;24.75;;
69305;SDS011;56427;51.580;4.656;2024-03-22T00:11:35;49.53;;;25.08;;
69305;SDS011;56427;51.580;4.656;2024-03-22T00:14:01;51.10;;;24.50;;
69305;SDS011;56427;51.580;4.656;2024-03-22T00:16:26;46.05;;;23.38;;
69305;SDS011;56427;51.580;4.656;2024-03-22T00:18:52;50.77;;;24.17;;
69305;SDS011;56427;51.580;4.656;2024-03-22T00:21:17;49.60;;;24.70;;
69305;SDS011;56427;51.580;4.656;2024-03-22T00:23:43;45.63;;;24.15;;
69305;SDS011;56427;51.580;4.656;2024-03-22T00:26:09;48.20;;;22.80;;
69305;SDS011;56427;51.580;4.656;2024-03-22T00:28:35;47.83;;;23.27;;
69305;SDS011;56427;51.580;4.656;2024-03-22T00:31:00;46.58;;;22.58;;
69305;SDS011;56427;51.580;4.656;2024-03-22T00:33:25;49.57;;;24.70;;
69305;SDS011;56427;51.580;4.656;2024-03-22T00:35:51;54.40;;;25.63;;
69305;SDS011;56427;51.580;4.656;2024-03-22T00:38:16;47.40;;;24.77;;
69305;SDS011;56427;51.580;4.656;2024-03-22T00:40:41;45.40;;;23.17;;
69305;SDS011;56427;51.580;4.656;2024-03-22T00:43:07;49.27;;;24.70;;
69305;SDS011;56427;51.580;4.656;2024-03-22T00:45:32;45.67;;;23.73;;
69305;SDS011;56427;51.580;4.656;2024-03-22T00:47:57;46.47;;;22.35;;
69305;SDS011;56427;51.580;4.656;2024-03-22T00:50:23;47.40;;;23.47;;
69305;SDS011;56427;51.580;4.656;2024-03-22T00:52:49;46.53;;;22.73;;
69305;SDS011;56427;51.580;4.656;2024-03-22T00:55:15;50.58;;;24.17;;
69305;SDS011;56427;51.580;4.656;2024-03-22T00:57:40;40.77;;;21.13;;
69305;SDS011;56427;51.580;4.656;2024-03-22T01:00:06;46.10;;;22.80;;
69305;SDS011;56427;51.580;4.656;2024-03-22T01:02:32;41.40;;;20.88;;
69305;SDS011;56427;51.580;4.656;2024-03-22T01:04:57;48.10;;;22.90;;
69305;SDS011;56427;51.580;4.656;2024-03-22T01:07:23;42.63;;;21.93;;
69305;SDS011;56427;51.580;4.656;2024-03-22T01:09:48;41.57;;;21.63;;
69305;SDS011;56427;51.580;4.656;2024-03-22T01:12:14;40.53;;;21.87;;
69305;SDS011;56427;51.580;4.656;2024-03-22T01:14:39;46.77;;;21.90;;
69305;SDS011;56427;51.580;4.656;2024-03-22T01:17:04;40.53;;;20.67;;
69305;SDS011;56427;51.580;4.656;2024-03-22T01:19:29;42.72;;;21.50;;
69305;SDS011;56427;51.580;4.656;2024-03-22T01:21:55;43.00;;;21.93;;
69305;SDS011;56427;51.580;4.656;2024-03-22T01:24:20;40.30;;;21.70;;
69305;SDS011;56427;51.580;4.656;2024-03-22T01:26:45;40.67;;;20.60;;
69305;SDS011;56427;51.580;4.656;2024-03-22T01:29:11;41.23;;;20.93;;
69305;SDS011;56427;51.580;4.656;2024-03-22T01:31:36;41.93;;;19.27;;
69305;SDS011;56427;51.580;4.656;2024-03-22T01:34:01;42.57;;;19.60;;
69305;SDS011;56427;51.580;4.656;2024-03-22T01:36:27;37.63;;;20.57;;
69305;SDS011;56427;51.580;4.656;2024-03-22T01:38:52;40.03;;;20.43;;
69305;SDS011;56427;51.580;4.656;2024-03-22T01:41:17;41.10;;;21.57;;
69305;SDS011;56427;51.580;4.656;2024-03-22T01:43:43;41.60;;;21.67;;
69305;SDS011;56427;51.580;4.656;2024-03-22T01:46:08;48.20;;;22.23;;
69305;SDS011;56427;51.580;4.656;2024-03-22T01:48:34;41.73;;;21.40;;
69305;SDS011;56427;51.580;4.656;2024-03-22T01:50:59;39.33;;;21.52;;
69305;SDS011;56427;51.580;4.656;2024-03-22T01:53:26;39.25;;;21.67;;
69305;SDS011;56427;51.580;4.656;2024-03-22T01:55:53;42.20;;;20.63;;
69305;SDS011;56427;51.580;4.656;2024-03-22T01:58:18;41.87;;;20.77;;
69305;SDS011;56427;51.580;4.656;2024-03-22T02:00:43;39.60;;;20.00;;
69305;SDS011;56427;51.580;4.656;2024-03-22T02:03:09;40.67;;;20.73;;
69305;SDS011;56427;51.580;4.656;2024-03-22T02:05:34;40.40;;;20.03;;
69305;SDS011;56427;51.580;4.656;2024-03-22T02:08:00;37.80;;;19.10;;
69305;SDS011;56427;51.580;4.656;2024-03-22T02:10:25;35.80;;;19.07;;
69305;SDS011;56427;51.580;4.656;2024-03-22T02:12:50;39.30;;;18.42;;
69305;SDS011;56427;51.580;4.656;2024-03-22T02:15:16;38.73;;;18.37;;
69305;SDS011;56427;51.580;4.656;2024-03-22T02:17:41;35.33;;;17.87;;
69305;SDS011;56427;51.580;4.656;2024-03-22T02:20:06;36.03;;;17.97;;
69305;SDS011;56427;51.580;4.656;2024-03-22T02:22:33;33.72;;;16.73;;
69305;SDS011;56427;51.580;4.656;2024-03-22T02:24:58;41.27;;;17.10;;
69305;SDS011;56427;51.580;4.656;2024-03-22T02:27:24;34.27;;;18.17;;
69305;SDS011;56427;51.580;4.656;2024-03-22T02:29:50;32.72;;;16.15;;
69305;SDS011;56427;51.580;4.656;2024-03-22T02:32:15;32.03;;;15.20;;
69305;SDS011;56427;51.580;4.656;2024-03-22T02:34:40;32.40;;;15.73;;
69305;SDS011;56427;51.580;4.656;2024-03-22T02:37:06;31.83;;;16.27;;
69305;SDS011;56427;51.580;4.656;2024-03-22T02:39:31;35.03;;;15.70;;
69305;SDS011;56427;51.580;4.656;2024-03-22T02:41:56;29.90;;;15.10;;
69305;SDS011;56427;51.580;4.656;2024-03-22T02:44:22;40.20;;;16.87;;
69305;SDS011;56427;51.580;4.656;2024-03-22T02:46:47;35.58;;;16.85;;
69305;SDS011;56427;51.580;4.656;2024-03-22T02:49:12;35.60;;;17.63;;
69305;SDS011;56427;51.580;4.656;2024-03-22T02:51:38;32.57;;;15.40;;
69305;SDS011;56427;51.580;4.656;2024-03-22T02:54:04;32.57;;;16.23;;
69305;SDS011;56427;51.580;4.656;2024-03-22T02:56:29;33.10;;;16.55;;
69305;SDS011;56427;51.580;4.656;2024-03-22T02:58:55;36.67;;;17.65;;
69305;SDS011;56427;51.580;4.656;2024-03-22T03:01:20;34.83;;;16.67;;
69305;SDS011;56427;51.580;4.656;2024-03-22T03:03:46;41.07;;;18.03;;
69305;SDS011;56427;51.580;4.656;2024-03-22T03:06:11;35.37;;;17.37;;
69305;SDS011;56427;51.580;4.656;2024-03-22T03:08:38;35.55;;;17.52;;
69305;SDS011;56427;51.580;4.656;2024-03-22T03:11:03;33.50;;;16.60;;
69305;SDS011;56427;51.580;4.656;2024-03-22T03:13:29;35.50;;;16.80;;
69305;SDS011;56427;51.580;4.656;2024-03-22T03:15:54;34.70;;;16.50;;
69305;SDS011;56427;51.580;4.656;2024-03-22T03:18:19;34.00;;;16.73;;
69305;SDS011;56427;51.580;4.656;2024-03-22T03:20:44;38.07;;;17.93;;
69305;SDS011;56427;51.580;4.656;2024-03-22T03:23:10;36.77;;;16.20;;
69305;SDS011;56427;51.580;4.656;2024-03-22T03:25:35;37.25;;;17.75;;
69305;SDS011;56427;51.580;4.656;2024-03-22T03:28:01;34.00;;;16.87;;
69305;SDS011;56427;51.580;4.656;2024-03-22T03:30:26;34.40;;;16.07;;
69305;SDS011;56427;51.580;4.656;2024-03-22T03:32:51;38.33;;;16.73;;
69305;SDS011;56427;51.580;4.656;2024-03-22T03:35:16;34.10;;;16.23;;
69305;SDS011;56427;51.580;4.656;2024-03-22T03:37:42;39.17;;;17.27;;
69305;SDS011;56427;51.580;4.656;2024-03-22T03:40:07;39.97;;;17.87;;
69305;SDS011;56427;51.580;4.656;2024-03-22T03:42:33;38.53;;;17.90;;
69305;SDS011;56427;51.580;4.656;2024-03-22T03:44:59;41.67;;;17.97;;
69305;SDS011;56427;51.580;4.656;2024-03-22T03:47:24;36.58;;;17.65;;
69305;SDS011;56427;51.580;4.656;2024-03-22T03:49:49;39.05;;;18.23;;
69305;SDS011;56427;51.580;4.656;2024-03-22T03:52:14;40.33;;;18.43;;
69305;SDS011;56427;51.580;4.656;2024-03-22T03:54:40;40.10;;;20.20;;
69305;SDS011;56427;51.580;4.656;2024-03-22T03:57:05;45.17;;;19.33;;
69305;SDS011;56427;51.580;4.656;2024-03-22T03:59:33;39.05;;;19.13;;
69305;SDS011;56427;51.580;4.656;2024-03-22T04:01:58;39.20;;;18.70;;
69305;SDS011;56427;51.580;4.656;2024-03-22T04:04:23;36.47;;;17.63;;
69305;SDS011;56427;51.580;4.656;2024-03-22T04:06:49;38.20;;;18.17;;
69305;SDS011;56427;51.580;4.656;2024-03-22T04:09:14;36.17;;;18.17;;
69305;SDS011;56427;51.580;4.656;2024-03-22T04:11:39;34.40;;;17.67;;
69305;SDS011;56427;51.580;4.656;2024-03-22T04:14:05;35.73;;;16.50;;
69305;SDS011;56427;51.580;4.656;2024-03-22T04:16:30;35.42;;;16.35;;
69305;SDS011;56427;51.580;4.656;2024-03-22T04:18:56;34.15;;;16.75;;
69305;SDS011;56427;51.580;4.656;2024-03-22T04:21:21;34.83;;;17.57;;
69305;SDS011;56427;51.580;4.656;2024-03-22T04:23:47;30.93;;;16.17;;
69305;SDS011;56427;51.580;4.656;2024-03-22T04:26:12;34.20;;;16.63;;
69305;SDS011;56427;51.580;4.656;2024-03-22T04:28:37;34.73;;;15.97;;
69305;SDS011;56427;51.580;4.656;2024-03-22T04:31:06;32.87;;;16.23;;
69305;SDS011;56427;51.580;4.656;2024-03-22T04:33:33;31.85;;;17.10;;
69305;SDS011;56427;51.580;4.656;2024-03-22T04:35:59;32.75;;;16.08;;
69305;SDS011;56427;51.580;4.656;2024-03-22T04:38:26;31.20;;;16.17;;
69305;SDS011;56427;51.580;4.656;2024-03-22T04:40:52;32.27;;;16.07;;
69305;SDS011;56427;51.580;4.656;2024-03-22T04:43:19;36.35;;;17.55;;
69305;SDS011;56427;51.580;4.656;2024-03-22T04:45:45;36.80;;;17.30;;
69305;SDS011;56427;51.580;4.656;2024-03-22T04:48:12;34.50;;;16.48;;
69305;SDS011;56427;51.580;4.656;2024-03-22T04:50:40;31.98;;;16.92;;
69305;SDS011;56427;51.580;4.656;2024-03-22T04:53:06;36.60;;;17.17;;
69305;SDS011;56427;51.580;4.656;2024-03-22T04:55:31;32.95;;;17.13;;
69305;SDS011;56427;51.580;4.656;2024-03-22T04:57:58;34.27;;;16.30;;
69305;SDS011;56427;51.580;4.656;2024-03-22T05:00:23;31.70;;;16.88;;
69305;SDS011;56427;51.580;4.656;2024-03-22T05:02:50;37.20;;;18.60;;
69305;SDS011;56427;51.580;4.656;2024-03-22T05:05:15;38.42;;;18.17;;
69305;SDS011;56427;51.580;4.656;2024-03-22T05:07:41;34.00;;;17.10;;
69305;SDS011;56427;51.580;4.656;2024-03-22T05:10:06;36.07;;;18.97;;
69305;SDS011;56427;51.580;4.656;2024-03-22T05:12:32;35.43;;;18.30;;
69305;SDS011;56427;51.580;4.656;2024-03-22T05:14:57;36.63;;;20.17;;
69305;SDS011;56427;51.580;4.656;2024-03-22T05:17:22;34.03;;;17.60;;
69305;SDS011;56427;51.580;4.656;2024-03-22T05:19:47;32.87;;;17.23;;
69305;SDS011;56427;51.580;4.656;2024-03-22T05:22:13;35.90;;;17.17;;
69305;SDS011;56427;51.580;4.656;2024-03-22T05:24:38;36.67;;;18.07;;
69305;SDS011;56427;51.580;4.656;2024-03-22T05:27:04;32.23;;;17.27;;
69305;SDS011;56427;51.580;4.656;2024-03-22T05:29:29;38.33;;;17.73;;
69305;SDS011;56427;51.580;4.656;2024-03-22T05:31:54;35.90;;;18.30;;
69305;SDS011;56427;51.580;4.656;2024-03-22T05:34:20;36.60;;;17.97;;
69305;SDS011;56427;51.580;4.656;2024-03-22T05:36:45;35.73;;;17.30;;
69305;SDS011;56427;51.580;4.656;2024-03-22T05:39:11;34.72;;;17.98;;
69305;SDS011;56427;51.580;4.656;2024-03-22T05:41:37;37.83;;;17.70;;
69305;SDS011;56427;51.580;4.656;2024-03-22T05:44:02;33.85;;;16.67;;
69305;SDS011;56427;51.580;4.656;2024-03-22T05:46:28;36.30;;;17.77;;
69305;SDS011;56427;51.580;4.656;2024-03-22T05:48:54;31.80;;;16.13;;
69305;SDS011;56427;51.580;4.656;2024-03-22T05:51:19;32.63;;;15.63;;
69305;SDS011;56427;51.580;4.656;2024-03-22T05:53:45;34.00;;;16.80;;
69305;SDS011;56427;51.580;4.656;2024-03-22T05:56:10;33.23;;;16.13;;
69305;SDS011;56427;51.580;4.656;2024-03-22T05:58:36;33.17;;;15.73;;
69305;SDS011;56427;51.580;4.656;2024-03-22T06:01:01;34.05;;;16.85;;
69305;SDS011;56427;51.580;4.656;2024-03-22T06:03:28;33.55;;;16.42;;
69305;SDS011;56427;51.580;4.656;2024-03-22T06:05:54;37.03;;;15.37;;
69305;SDS011;56427;51.580;4.656;2024-03-22T06:08:21;39.53;;;15.63;;
69305;SDS011;56427;51.580;4.656;2024-03-22T06:10:47;34.07;;;16.33;;
69305;SDS011;56427;51.580;4.656;2024-03-22T06:13:12;31.33;;;14.70;;
69305;SDS011;56427;51.580;4.656;2024-03-22T06:15:37;36.17;;;15.53;;
69305;SDS011;56427;51.580;4.656;2024-03-22T06:18:03;34.65;;;14.98;;
69305;SDS011;56427;51.580;4.656;2024-03-22T06:20:28;33.10;;;15.40;;
69305;SDS011;56427;51.580;4.656;2024-03-22T06:22:53;31.00;;;15.90;;
69305;SDS011;56427;51.580;4.656;2024-03-22T06:25:19;32.90;;;14.93;;
69305;SDS011;56427;51.580;4.656;2024-03-22T06:27:44;32.67;;;15.63;;
69305;SDS011;56427;51.580;4.656;2024-03-22T06:30:09;32.03;;;15.23;;
69305;SDS011;56427;51.580;4.656;2024-03-22T06:32:35;33.22;;;15.48;;
69305;SDS011;56427;51.580;4.656;2024-03-22T06:35:00;28.93;;;14.57;;
69305;SDS011;56427;51.580;4.656;2024-03-22T06:37:26;30.02;;;14.23;;
69305;SDS011;56427;51.580;4.656;2024-03-22T06:39:51;32.93;;;15.83;;
69305;SDS011;56427;51.580;4.656;2024-03-22T06:42:16;34.90;;;17.80;;
69305;SDS011;56427;51.580;4.656;2024-03-22T06:44:42;30.07;;;15.37;;
69305;SDS011;56427;51.580;4.656;2024-03-22T06:47:07;27.93;;;13.27;;
69305;SDS011;56427;51.580;4.656;2024-03-22T06:49:32;32.47;;;16.00;;
69305;SDS011;56427;51.580;4.656;2024-03-22T06:51:57;30.57;;;13.80;;
69305;SDS011;56427;51.580;4.656;2024-03-22T06:54:23;31.30;;;14.87;;
69305;SDS011;56427;51.580;4.656;2024-03-22T06:56:48;32.13;;;14.15;;
69305;SDS011;56427;51.580;4.656;2024-03-22T06:59:14;26.57;;;13.03;;
69305;SDS011;56427;51.580;4.656;2024-03-22T07:01:39;29.33;;;14.23;;
69305;SDS011;56427;51.580;4.656;2024-03-22T07:04:04;28.13;;;13.10;;
69305;SDS011;56427;51.580;4.656;2024-03-22T07:06:29;30.17;;;14.50;;
69305;SDS011;56427;51.580;4.656;2024-03-22T07:08:55;25.77;;;12.07;;
69305;SDS011;56427;51.580;4.656;2024-03-22T07:11:20;26.33;;;11.83;;
69305;SDS011;56427;51.580;4.656;2024-03-22T07:13:46;27.27;;;12.45;;
69305;SDS011;56427;51.580;4.656;2024-03-22T07:16:11;26.40;;;11.03;;
69305;SDS011;56427;51.580;4.656;2024-03-22T07:18:37;25.40;;;11.87;;
69305;SDS011;56427;51.580;4.656;2024-03-22T07:21:02;25.20;;;11.90;;
69305;SDS011;56427;51.580;4.656;2024-03-22T07:23:28;23.55;;;11.70;;
69305;SDS011;56427;51.580;4.656;2024-03-22T07:25:54;31.20;;;12.30;;
69305;SDS011;56427;51.580;4.656;2024-03-22T07:28:19;25.20;;;11.57;;
69305;SDS011;56427;51.580;4.656;2024-03-22T07:30:45;23.60;;;11.77;;
69305;SDS011;56427;51.580;4.656;2024-03-22T07:33:10;23.92;;;11.48;;
69305;SDS011;56427;51.580;4.656;2024-03-22T07:35:38;25.27;;;11.57;;
69305;SDS011;56427;51.580;4.656;2024-03-22T07:38:04;25.60;;;13.15;;
69305;SDS011;56427;51.580;4.656;2024-03-22T07:40:30;29.55;;;12.40;;
69305;SDS011;56427;51.580;4.656;2024-03-22T07:42:55;25.08;;;12.35;;
69305;SDS011;56427;51.580;4.656;2024-03-22T07:45:20;26.50;;;12.67;;
69305;SDS011;56427;51.580;4.656;2024-03-22T07:47:46;25.97;;;11.90;;
69305;SDS011;56427;51.580;4.656;2024-03-22T07:50:11;31.00;;;13.27;;
69305;SDS011;56427;51.580;4.656;2024-03-22T07:52:36;28.17;;;12.07;;
69305;SDS011;56427;51.580;4.656;2024-03-22T07:55:02;27.23;;;12.60;;
69305;SDS011;56427;51.580;4.656;2024-03-22T07:57:28;28.30;;;12.70;;
69305;SDS011;56427;51.580;4.656;2024-03-22T07:59:56;26.17;;;11.90;;
69305;SDS011;56427;51.580;4.656;2024-03-22T08:02:22;26.27;;;12.13;;
69305;SDS011;56427;51.580;4.656;2024-03-22T08:04:47;27.98;;;12.05;;
69305;SDS011;56427;51.580;4.656;2024-03-22T08:07:12;24.33;;;11.27;;
69305;SDS011;56427;51.580;4.656;2024-03-22T08:09:37;25.40;;;12.50;;
69305;SDS011;56427;51.580;4.656;2024-03-22T08:12:03;25.00;;;11.70;;
69305;SDS011;56427;51.580;4.656;2024-03-22T08:14:29;24.90;;;12.67;;
69305;SDS011;56427;51.580;4.656;2024-03-22T08:16:54;24.73;;;11.23;;
69305;SDS011;56427;51.580;4.656;2024-03-22T08:19:19;24.40;;;11.60;;
69305;SDS011;56427;51.580;4.656;2024-03-22T08:21:44;26.80;;;11.82;;
69305;SDS011;56427;51.580;4.656;2024-03-22T08:24:10;25.53;;;11.57;;
69305;SDS011;56427;51.580;4.656;2024-03-22T08:26:35;23.80;;;11.93;;
69305;SDS011;56427;51.580;4.656;2024-03-22T08:29:00;24.23;;;10.23;;
69305;SDS011;56427;51.580;4.656;2024-03-22T08:31:26;22.57;;;11.07;;
69305;SDS011;56427;51.580;4.656;2024-03-22T08:33:53;25.10;;;11.30;;
69305;SDS011;56427;51.580;4.656;2024-03-22T08:36:20;23.23;;;10.80;;
69305;SDS011;56427;51.580;4.656;2024-03-22T08:38:46;22.03;;;11.00;;
69305;SDS011;56427;51.580;4.656;2024-03-22T08:41:11;24.33;;;11.40;;
69305;SDS011;56427;51.580;4.656;2024-03-22T08:43:37;28.07;;;12.97;;
69305;SDS011;56427;51.580;4.656;2024-03-22T08:46:02;20.30;;;10.35;;
69305;SDS011;56427;51.580;4.656;2024-03-22T08:48:28;24.03;;;12.40;;
69305;SDS011;56427;51.580;4.656;2024-03-22T08:50:54;24.38;;;11.52;;
69305;SDS011;56427;51.580;4.656;2024-03-22T08:53:20;23.60;;;11.23;;
69305;SDS011;56427;51.580;4.656;2024-03-22T08:55:45;21.97;;;10.70;;
69305;SDS011;56427;51.580;4.656;2024-03-22T08:58:12;28.58;;;10.48;;
69305;SDS011;56427;51.580;4.656;2024-03-22T09:00:38;20.58;;;10.75;;
69305;SDS011;56427;51.580;4.656;2024-03-22T09:03:04;24.90;;;10.80;;
69305;SDS011;56427;51.580;4.656;2024-03-22T09:05:29;21.50;;;10.63;;
69305;SDS011;56427;51.580;4.656;2024-03-22T09:07:54;22.87;;;11.03;;
69305;SDS011;56427;51.580;4.656;2024-03-22T09:10:22;28.45;;;11.73;;
69305;SDS011;56427;51.580;4.656;2024-03-22T09:12:47;25.47;;;11.33;;
69305;SDS011;56427;51.580;4.656;2024-03-22T09:15:12;22.70;;;10.33;;
69305;SDS011;56427;51.580;4.656;2024-03-22T09:17:37;21.47;;;10.23;;
69305;SDS011;56427;51.580;4.656;2024-03-22T09:20:03;23.20;;;10.83;;
69305;SDS011;56427;51.580;4.656;2024-03-22T09:22:30;22.88;;;10.88;;
69305;SDS011;56427;51.580;4.656;2024-03-22T09:24:57;20.40;;;10.27;;
69305;SDS011;56427;51.580;4.656;2024-03-22T09:27:22;24.67;;;10.83;;
69305;SDS011;56427;51.580;4.656;2024-03-22T09:29:48;20.47;;;10.43;;
69305;SDS011;56427;51.580;4.656;2024-03-22T09:32:14;30.55;;;11.15;;
69305;SDS011;56427;51.580;4.656;2024-03-22T09:34:39;23.53;;;12.07;;
69305;SDS011;56427;51.580;4.656;2024-03-22T09:37:05;23.17;;;11.93;;
69305;SDS011;56427;51.580;4.656;2024-03-22T09:39:31;22.75;;;11.38;;
69305;SDS011;56427;51.580;4.656;2024-03-22T09:41:57;24.38;;;11.18;;
69305;SDS011;56427;51.580;4.656;2024-03-22T09:44:23;21.83;;;11.32;;
69305;SDS011;56427;51.580;4.656;2024-03-22T09:46:52;25.57;;;12.13;;
69305;SDS011;56427;51.580;4.656;2024-03-22T09:49:18;28.60;;;12.68;;
69305;SDS011;56427;51.580;4.656;2024-03-22T09:51:43;28.23;;;12.87;;
69305;SDS011;56427;51.580;4.656;2024-03-22T09:54:12;27.48;;;13.05;;
69305;SDS011;56427;51.580;4.656;2024-03-22T09:56:41;26.92;;;13.13;;
69305;SDS011;56427;51.580;4.656;2024-03-22T09:59:07;25.83;;;12.47;;
69305;SDS011;56427;51.580;4.656;2024-03-22T10:01:34;26.27;;;13.05;;
69305;SDS011;56427;51.580;4.656;2024-03-22T10:03:59;27.17;;;12.95;;
69305;SDS011;56427;51.580;4.656;2024-03-22T10:06:25;28.33;;;13.35;;
69305;SDS011;56427;51.580;4.656;2024-03-22T10:08:51;32.83;;;14.40;;
69305;SDS011;56427;51.580;4.656;2024-03-22T10:11:16;36.77;;;14.73;;
69305;SDS011;56427;51.580;4.656;2024-03-22T10:13:41;31.83;;;15.23;;
69305;SDS011;56427;51.580;4.656;2024-03-22T10:16:07;38.03;;;15.57;;
69305;SDS011;56427;51.580;4.656;2024-03-22T10:18:33;43.80;;;16.35;;
69305;SDS011;56427;51.580;4.656;2024-03-22T10:21:02;34.28;;;14.68;;
69305;SDS011;56427;51.580;4.656;2024-03-22T10:23:29;38.85;;;17.08;;
69305;SDS011;56427;51.580;4.656;2024-03-22T10:26:01;39.13;;;16.53;;
69305;SDS011;56427;51.580;4.656;2024-03-22T10:28:26;42.20;;;17.50;;
69305;SDS011;56427;51.580;4.656;2024-03-22T10:30:52;38.42;;;16.98;;
69305;SDS011;56427;51.580;4.656;2024-03-22T10:33:18;37.25;;;16.85;;
69305;SDS011;56427;51.580;4.656;2024-03-22T10:35:53;45.77;;;18.20;;
69305;SDS011;56427;51.580;4.656;2024-03-22T10:38:19;41.30;;;17.15;;
69305;SDS011;56427;51.580;4.656;2024-03-22T10:40:45;51.45;;;20.13;;
69305;SDS011;56427;51.580;4.656;2024-03-22T10:43:12;36.97;;;19.58;;
69305;SDS011;56427;51.580;4.656;2024-03-22T10:45:38;38.53;;;18.42;;
69305;SDS011;56427;51.580;4.656;2024-03-22T10:48:05;34.03;;;17.20;;
69305;SDS011;56427;51.580;4.656;2024-03-22T10:50:39;28.80;;;15.85;;
69305;SDS011;56427;51.580;4.656;2024-03-22T10:53:07;28.73;;;15.27;;
69305;SDS011;56427;51.580;4.656;2024-03-22T10:55:38;32.17;;;15.93;;
69305;SDS011;56427;51.580;4.656;2024-03-22T10:58:06;32.92;;;17.08;;
69305;SDS011;56427;51.580;4.656;2024-03-22T11:00:32;33.83;;;16.50;;
69305;SDS011;56427;51.580;4.656;2024-03-22T11:02:59;30.27;;;16.63;;
69305;SDS011;56427;51.580;4.656;2024-03-22T11:05:27;30.13;;;15.30;;
69305;SDS011;56427;51.580;4.656;2024-03-22T11:07:59;27.13;;;14.43;;
69305;SDS011;56427;51.580;4.656;2024-03-22T11:10:31;29.00;;;14.45;;
69305;SDS011;56427;51.580;4.656;2024-03-22T11:13:07;26.15;;;14.70;;
69305;SDS011;56427;51.580;4.656;2024-03-22T11:15:33;30.90;;;15.07;;
69305;SDS011;56427;51.580;4.656;2024-03-22T11:18:00;32.50;;;15.32;;
69305;SDS011;56427;51.580;4.656;2024-03-22T11:20:26;32.63;;;16.70;;
69305;SDS011;56427;51.580;4.656;2024-03-22T11:22:52;29.65;;;15.05;;
69305;SDS011;56427;51.580;4.656;2024-03-22T11:25:17;30.50;;;15.77;;
69305;SDS011;56427;51.580;4.656;2024-03-22T11:27:44;29.77;;;14.98;;
69305;SDS011;56427;51.580;4.656;2024-03-22T11:30:09;24.80;;;14.07;;
69305;SDS011;56427;51.580;4.656;2024-03-22T11:32:35;28.73;;;15.47;;
69305;SDS011;56427;51.580;4.656;2024-03-22T11:35:12;28.67;;;16.13;;
69305;SDS011;56427;51.580;4.656;2024-03-22T11:37:41;27.45;;;14.68;;
69305;SDS011;56427;51.580;4.656;2024-03-22T11:40:10;27.70;;;14.50;;
69305;SDS011;56427;51.580;4.656;2024-03-22T11:42:37;23.67;;;13.43;;
69305;SDS011;56427;51.580;4.656;2024-03-22T11:45:05;24.02;;;13.88;;
69305;SDS011;56427;51.580;4.656;2024-03-22T11:47:32;25.30;;;12.95;;
69305;SDS011;56427;51.580;4.656;2024-03-22T11:49:58;20.77;;;13.15;;
69305;SDS011;56427;51.580;4.656;2024-03-22T11:52:28;20.40;;;12.07;;
69305;SDS011;56427;51.580;4.656;2024-03-22T11:54:53;19.85;;;12.23;;
69305;SDS011;56427;51.580;4.656;2024-03-22T11:57:22;20.65;;;12.30;;
69305;SDS011;56427;51.580;4.656;2024-03-22T11:59:48;24.30;;;13.90;;
69305;SDS011;56427;51.580;4.656;2024-03-22T12:02:13;22.52;;;13.88;;
69305;SDS011;56427;51.580;4.656;2024-03-22T12:04:43;22.70;;;14.03;;
69305;SDS011;56427;51.580;4.656;2024-03-22T12:07:11;22.15;;;14.20;;
69305;SDS011;56427;51.580;4.656;2024-03-22T12:09:38;16.27;;;12.02;;
69305;SDS011;56427;51.580;4.656;2024-03-22T12:12:04;22.53;;;13.83;;
69305;SDS011;56427;51.580;4.656;2024-03-22T12:14:31;24.15;;;14.55;;
69305;SDS011;56427;51.580;4.656;2024-03-22T12:16:57;20.97;;;13.80;;
69305;SDS011;56427;51.580;4.656;2024-03-22T12:19:22;20.20;;;13.00;;
69305;SDS011;56427;51.580;4.656;2024-03-22T12:21:47;22.87;;;15.30;;
69305;SDS011;56427;51.580;4.656;2024-03-22T12:24:12;19.40;;;12.97;;
69305;SDS011;56427;51.580;4.656;2024-03-22T12:26:38;20.58;;;13.18;;
69305;SDS011;56427;51.580;4.656;2024-03-22T12:29:03;20.60;;;13.47;;
69305;SDS011;56427;51.580;4.656;2024-03-22T12:31:29;17.90;;;11.33;;
69305;SDS011;56427;51.580;4.656;2024-03-22T12:33:55;19.80;;;12.80;;
69305;SDS011;56427;51.580;4.656;2024-03-22T12:36:20;17.40;;;11.90;;
69305;SDS011;56427;51.580;4.656;2024-03-22T12:38:45;20.20;;;12.47;;
69305;SDS011;56427;51.580;4.656;2024-03-22T12:41:11;18.13;;;11.53;;
69305;SDS011;56427;51.580;4.656;2024-03-22T12:43:36;21.40;;;11.77;;
69305;SDS011;56427;51.580;4.656;2024-03-22T12:46:01;16.57;;;9.77;;
69305;SDS011;56427;51.580;4.656;2024-03-22T12:48:27;17.55;;;10.50;;
69305;SDS011;56427;51.580;4.656;2024-03-22T12:50:53;15.73;;;9.50;;
69305;SDS011;56427;51.580;4.656;2024-03-22T12:53:18;14.43;;;9.13;;
69305;SDS011;56427;51.580;4.656;2024-03-22T12:55:43;17.33;;;8.83;;
69305;SDS011;56427;51.580;4.656;2024-03-22T12:58:09;14.73;;;8.37;;
69305;SDS011;56427;51.580;4.656;2024-03-22T13:00:34;14.73;;;7.63;;
69305;SDS011;56427;51.580;4.656;2024-03-22T13:03:00;14.57;;;8.07;;
69305;SDS011;56427;51.580;4.656;2024-03-22T13:05:25;13.55;;;7.63;;
69305;SDS011;56427;51.580;4.656;2024-03-22T13:07:51;15.33;;;7.63;;
69305;SDS011;56427;51.580;4.656;2024-03-22T13:10:17;10.25;;;6.75;;
69305;SDS011;56427;51.580;4.656;2024-03-22T13:12:42;12.10;;;7.63;;
69305;SDS011;56427;51.580;4.656;2024-03-22T13:15:08;10.80;;;6.13;;
69305;SDS011;56427;51.580;4.656;2024-03-22T13:17:33;13.50;;;6.27;;
69305;SDS011;56427;51.580;4.656;2024-03-22T13:19:58;9.83;;;5.80;;
69305;SDS011;56427;51.580;4.656;2024-03-22T13:22:24;8.60;;;5.45;;
69305;SDS011;56427;51.580;4.656;2024-03-22T13:24:50;9.93;;;5.80;;
69305;SDS011;56427;51.580;4.656;2024-03-22T13:27:16;12.27;;;6.43;;
69305;SDS011;56427;51.580;4.656;2024-03-22T13:29:42;10.10;;;6.25;;
69305;SDS011;56427;51.580;4.656;2024-03-22T13:32:07;7.80;;;4.63;;
69305;SDS011;56427;51.580;4.656;2024-03-22T13:34:34;9.07;;;4.72;;
69305;SDS011;56427;51.580;4.656;2024-03-22T13:37:00;8.45;;;5.25;;
69305;SDS011;56427;51.580;4.656;2024-03-22T13:39:25;11.67;;;5.60;;
69305;SDS011;56427;51.580;4.656;2024-03-22T13:41:50;10.63;;;5.67;;
69305;SDS011;56427;51.580;4.656;2024-03-22T13:44:16;11.07;;;5.20;;
69305;SDS011;56427;51.580;4.656;2024-03-22T13:46:41;9.77;;;6.07;;
69305;SDS011;56427;51.580;4.656;2024-03-22T13:49:13;10.53;;;6.23;;
69305;SDS011;56427;51.580;4.656;2024-03-22T13:51:43;11.77;;;6.20;;
69305;SDS011;56427;51.580;4.656;2024-03-22T13:54:12;12.18;;;6.65;;
69305;SDS011;56427;51.580;4.656;2024-03-22T13:56:37;12.05;;;6.50;;
69305;SDS011;56427;51.580;4.656;2024-03-22T13:59:03;10.87;;;7.00;;
69305;SDS011;56427;51.580;4.656;2024-03-22T14:01:30;9.90;;;6.53;;
69305;SDS011;56427;51.580;4.656;2024-03-22T14:03:56;11.43;;;6.93;;
69305;SDS011;56427;51.580;4.656;2024-03-22T14:06:22;9.73;;;7.13;;
69305;SDS011;56427;51.580;4.656;2024-03-22T14:08:47;14.87;;;8.37;;
69305;SDS011;56427;51.580;4.656;2024-03-22T14:11:12;15.30;;;8.02;;
69305;SDS011;56427;51.580;4.656;2024-03-22T14:13:38;13.23;;;7.17;;
69305;SDS011;56427;51.580;4.656;2024-03-22T14:16:03;11.93;;;7.43;;